createdAt,value
2022-10-19T00:01:36.873Z,101542.13
2022-10-19T00:04:08.658Z,101517.84
2022-10-19T00:07:04.572Z,101539.09
2022-10-19T00:09:32.528Z,101531.75
2022-10-19T00:12:00.599Z,101526.53
2022-10-19T00:14:28.606Z,101498.19
2022-10-19T00:16:58.229Z,101487.69
2022-10-19T00:19:28.593Z,101482.41
2022-10-19T00:21:57.066Z,101476.22
2022-10-19T00:24:25.147Z,101529.16
2022-10-19T00:26:53.427Z,101487.72
2022-10-19T00:29:21.754Z,101508.09
2022-10-19T00:31:51.000Z,101513.16
2022-10-19T00:34:20.514Z,101493.78
2022-10-19T00:36:48.796Z,101504.66
2022-10-19T00:39:20.710Z,101464.47
2022-10-19T00:41:49.472Z,101524.75
2022-10-19T00:44:55.102Z,101522.22
2022-10-19T00:47:25.762Z,101484.59
2022-10-19T00:49:56.024Z,101454.78
2022-10-19T00:52:27.810Z,101487.53
2022-10-19T00:54:57.968Z,101525.13
2022-10-19T00:57:30.611Z,101509.56
2022-10-19T01:00:01.942Z,101517.94
2022-10-19T01:02:30.404Z,101523.41
2022-10-19T01:05:00.711Z,101503.28
2022-10-19T01:07:30.357Z,101474.25
2022-10-19T01:09:59.176Z,101452.94
2022-10-19T01:12:57.883Z,101485.00
2022-10-19T01:15:34.080Z,101497.81
2022-10-19T01:18:09.083Z,101476.16
2022-10-19T01:21:19.702Z,101509.25
2022-10-19T01:24:35.822Z,101494.75
2022-10-19T01:27:52.367Z,101507.97
2022-10-19T01:30:35.511Z,101495.38
2022-10-19T01:33:15.038Z,101479.97
2022-10-19T01:35:48.127Z,101503.34
2022-10-19T01:38:25.424Z,101456.00
2022-10-19T01:40:59.911Z,101508.97
2022-10-19T01:43:38.139Z,101494.91
2022-10-19T01:46:13.389Z,101482.50
2022-10-19T01:48:46.194Z,101503.63
2022-10-19T01:51:19.251Z,101448.16
2022-10-19T01:53:52.208Z,101450.78
2022-10-19T01:56:25.219Z,101437.06
2022-10-19T01:58:57.096Z,101494.34
2022-10-19T02:01:31.640Z,101452.47
2022-10-19T02:04:01.145Z,101477.56
2022-10-19T02:06:29.599Z,101459.69
2022-10-19T02:08:58.244Z,101424.75
2022-10-19T02:11:26.791Z,101449.63
2022-10-19T02:13:59.755Z,101464.28
2022-10-19T02:16:34.643Z,101461.16
2022-10-19T02:19:04.787Z,101469.00
2022-10-19T02:21:34.285Z,101462.09
2022-10-19T02:24:03.508Z,101463.84
2022-10-19T02:26:32.521Z,101464.19
2022-10-19T02:29:04.365Z,101488.25
2022-10-19T02:31:35.115Z,101494.78
2022-10-19T02:34:08.031Z,101443.31
2022-10-19T02:36:38.695Z,101456.84
2022-10-19T02:39:08.814Z,101451.91
2022-10-19T02:41:41.372Z,101427.34
2022-10-19T02:44:16.811Z,101439.56
2022-10-19T02:46:51.355Z,101427.38
2022-10-19T02:49:21.455Z,101456.78
2022-10-19T02:52:03.536Z,101475.13
2022-10-19T02:54:32.494Z,101464.41
2022-10-19T02:57:01.555Z,101409.16
2022-10-19T02:59:30.608Z,101444.31
2022-10-19T03:02:02.087Z,101428.53
2022-10-19T03:04:30.504Z,101435.19
2022-10-19T03:06:59.389Z,101462.69
2022-10-19T03:09:27.815Z,101398.59
2022-10-19T03:12:05.243Z,101397.94
2022-10-19T03:14:35.364Z,101397.78
2022-10-19T03:17:05.682Z,101467.09
2022-10-19T03:19:35.633Z,101420.69
2022-10-19T03:22:04.281Z,101409.84
2022-10-19T03:24:33.171Z,101428.69
2022-10-19T03:27:01.792Z,101443.50
2022-10-19T03:29:30.216Z,101459.28
2022-10-19T03:31:58.463Z,101396.59
2022-10-19T03:34:28.297Z,101432.94
2022-10-19T03:36:56.810Z,101415.56
2022-10-19T03:39:24.985Z,101411.28
2022-10-19T03:41:53.216Z,101431.06
2022-10-19T03:44:21.684Z,101433.59
2022-10-19T03:46:49.827Z,101415.75
2022-10-19T03:49:17.918Z,101409.28
2022-10-19T03:51:47.779Z,101457.34
2022-10-19T03:54:17.686Z,101409.19
2022-10-19T03:56:45.851Z,101445.09
2022-10-19T03:59:16.031Z,101415.06
2022-10-19T04:01:46.272Z,101448.50
2022-10-19T04:04:16.392Z,101446.44
2022-10-19T04:06:48.254Z,101384.81
2022-10-19T04:09:18.166Z,101439.06
2022-10-19T04:11:46.564Z,101431.28
2022-10-19T04:14:26.750Z,101454.66
2022-10-19T04:17:01.425Z,101454.34
2022-10-19T04:19:29.402Z,101447.13
2022-10-19T04:21:59.168Z,101442.41
2022-10-19T04:24:27.168Z,101422.91
2022-10-19T04:26:56.665Z,101403.38
2022-10-19T04:29:29.672Z,101451.16
2022-10-19T04:31:59.519Z,101433.59
2022-10-19T04:34:27.567Z,101428.97
2022-10-19T04:36:59.158Z,101445.44
2022-10-19T04:39:28.695Z,101442.88
2022-10-19T04:41:56.754Z,101409.91
2022-10-19T04:44:24.942Z,101443.63
2022-10-19T04:46:52.999Z,101468.28
2022-10-19T04:49:21.167Z,101468.22
2022-10-19T04:51:49.256Z,101427.66
2022-10-19T04:54:17.219Z,101443.97
2022-10-19T04:56:46.850Z,101451.34
2022-10-19T04:59:14.885Z,101409.91
2022-10-19T05:01:46.491Z,101446.94
2022-10-19T05:04:15.287Z,101475.06
2022-10-19T05:06:43.158Z,101468.44
2022-10-19T05:09:10.936Z,101422.41
2022-10-19T05:11:38.763Z,101433.50
2022-10-19T05:14:08.013Z,101468.69
2022-10-19T05:16:35.958Z,101459.81
2022-10-19T05:19:03.883Z,101475.25
2022-10-19T05:21:31.691Z,101470.78
2022-10-19T05:23:59.628Z,101485.19
2022-10-19T05:26:29.642Z,101456.06
2022-10-19T05:29:01.465Z,101472.97
2022-10-19T05:31:32.816Z,101442.44
2022-10-19T05:34:03.083Z,101435.97
2022-10-19T05:36:34.648Z,101438.88
2022-10-19T05:39:05.990Z,101441.00
2022-10-19T05:41:34.037Z,101478.69
2022-10-19T05:44:03.375Z,101454.56
2022-10-19T05:46:33.651Z,101470.97
2022-10-19T05:49:05.068Z,101424.75
2022-10-19T05:51:33.157Z,101468.13
2022-10-19T05:54:01.153Z,101426.13
2022-10-19T05:56:30.599Z,101445.19
2022-10-19T05:58:59.760Z,101471.72
2022-10-19T06:01:29.082Z,101473.41
2022-10-19T06:03:59.809Z,101436.81
2022-10-19T06:06:28.440Z,101477.94
2022-10-19T06:08:58.915Z,101465.53
2022-10-19T06:11:29.075Z,101446.63
2022-10-19T06:13:58.840Z,101455.63
2022-10-19T06:16:27.889Z,101474.09
2022-10-19T06:18:56.591Z,101470.00
2022-10-19T06:21:28.286Z,101472.22
2022-10-19T06:23:57.772Z,101472.94
2022-10-19T06:26:26.733Z,101469.00
2022-10-19T06:28:56.500Z,101453.19
2022-10-19T06:31:24.629Z,101470.41
2022-10-19T06:33:52.566Z,101455.28
2022-10-19T06:36:23.023Z,101480.13
2022-10-19T06:38:53.145Z,101483.50
2022-10-19T06:41:21.624Z,101483.75
2022-10-19T06:43:53.767Z,101449.41
2022-10-19T06:46:23.544Z,101454.72
2022-10-19T06:48:52.519Z,101465.91
2022-10-19T06:51:20.741Z,101459.22
2022-10-19T06:53:54.170Z,101494.50
2022-10-19T06:56:25.548Z,101460.34
2022-10-19T06:58:53.491Z,101462.66
2022-10-19T07:01:21.466Z,101483.41
2022-10-19T07:03:51.681Z,101474.31
2022-10-19T07:06:19.732Z,101465.88
2022-10-19T07:08:47.674Z,101445.84
2022-10-19T07:11:19.310Z,101493.09
2022-10-19T07:13:48.750Z,101500.97
2022-10-19T07:16:21.269Z,101472.25
2022-10-19T07:18:50.900Z,101490.72
2022-10-19T07:21:20.513Z,101501.97
2022-10-19T07:23:49.620Z,101478.84
2022-10-19T07:26:21.419Z,101498.53
2022-10-19T07:28:52.191Z,101477.22
2022-10-19T07:31:22.013Z,101459.59
2022-10-19T07:33:53.574Z,101508.69
2022-10-19T07:36:22.053Z,101480.53
2022-10-19T07:38:50.269Z,101489.53
2022-10-19T07:41:20.265Z,101506.81
2022-10-19T07:43:50.770Z,101517.00
2022-10-19T07:46:21.087Z,101493.34
2022-10-19T07:48:48.951Z,101492.06
2022-10-19T07:51:18.255Z,101493.53
2022-10-19T07:53:47.240Z,101523.94
2022-10-19T07:56:17.328Z,101519.34
2022-10-19T07:58:45.467Z,101528.22
2022-10-19T08:01:16.885Z,101516.28
2022-10-19T08:06:33.226Z,101524.84
2022-10-19T08:09:01.466Z,101497.53
2022-10-19T08:11:32.545Z,101532.59
2022-10-19T08:14:02.832Z,101535.06
2022-10-19T08:16:34.017Z,101524.59
2022-10-19T08:19:03.693Z,101536.19
2022-10-19T08:21:32.460Z,101491.63
2022-10-19T08:24:00.353Z,101502.81
2022-10-19T08:26:30.044Z,101533.84
2022-10-19T08:29:00.935Z,101506.63
2022-10-19T08:31:30.785Z,101526.91
2022-10-19T08:34:06.124Z,101506.31
2022-10-19T08:36:35.539Z,101497.31
2022-10-19T08:39:05.153Z,101501.88
2022-10-19T08:41:36.712Z,101504.09
2022-10-19T08:44:22.455Z,101500.31
2022-10-19T08:46:57.388Z,101480.28
2022-10-19T08:49:30.032Z,101491.31
2022-10-19T08:52:02.229Z,101478.19
2022-10-19T08:54:39.074Z,101473.28
2022-10-19T08:57:16.910Z,101471.06
2022-10-19T08:59:53.288Z,101471.25
2022-10-19T09:02:36.105Z,101486.59
2022-10-19T09:05:15.525Z,101486.16
2022-10-19T09:07:45.899Z,101453.03
2022-10-19T09:10:22.597Z,101483.25
2022-10-19T09:12:58.705Z,101492.78
2022-10-19T09:16:03.575Z,101486.94
2022-10-19T09:18:47.338Z,101479.16
2022-10-19T09:21:31.083Z,101472.88
2022-10-19T09:24:29.945Z,101485.31
2022-10-19T09:27:00.573Z,101476.44
2022-10-19T09:29:38.278Z,101458.25
2022-10-19T09:32:13.736Z,101459.34
2022-10-19T09:34:45.640Z,101466.09
2022-10-19T09:37:26.813Z,101447.69
2022-10-19T09:39:56.158Z,101446.25
2022-10-19T09:42:30.596Z,101470.88
2022-10-19T09:45:01.021Z,101473.41
2022-10-19T09:47:36.427Z,101449.31
2022-10-19T09:50:15.366Z,101421.84
2022-10-19T09:52:46.071Z,101479.72
2022-10-19T09:55:37.397Z,101479.31
2022-10-19T09:58:16.851Z,101450.38
2022-10-19T10:00:46.888Z,101457.91
2022-10-19T10:03:27.387Z,101440.28
2022-10-19T10:05:57.541Z,101440.09
2022-10-19T10:08:30.579Z,101461.44
2022-10-19T10:11:07.133Z,101464.19
2022-10-19T10:13:39.080Z,101468.00
2022-10-19T10:16:19.277Z,101470.09
2022-10-19T10:18:55.324Z,101475.53
2022-10-19T10:21:27.221Z,101446.56
2022-10-19T10:24:05.840Z,101473.84
2022-10-19T10:26:39.961Z,101470.81
2022-10-19T10:29:20.071Z,101473.84
2022-10-19T10:31:51.186Z,101462.44
2022-10-19T10:34:37.459Z,101444.94
2022-10-19T10:37:23.037Z,101441.91
2022-10-19T10:39:56.827Z,101433.22
2022-10-19T10:42:31.335Z,101445.03
2022-10-19T10:45:00.777Z,101437.97
2022-10-19T10:47:34.529Z,101447.97
2022-10-19T10:50:06.462Z,101442.84
2022-10-19T10:52:38.539Z,101428.16
2022-10-19T10:55:45.757Z,101401.34
2022-10-19T10:58:19.482Z,101406.63
2022-10-19T11:00:49.692Z,101395.97
2022-10-19T11:03:24.241Z,101392.38
2022-10-19T11:06:00.244Z,101413.59
2022-10-19T11:08:33.112Z,101400.19
2022-10-19T11:11:13.967Z,101415.44
2022-10-19T11:13:48.892Z,101412.22
2022-10-19T11:16:19.210Z,101392.38
2022-10-19T11:18:53.025Z,101387.56
2022-10-19T11:21:27.626Z,101392.06
2022-10-19T11:24:06.463Z,101401.66
2022-10-19T11:26:49.474Z,101397.09
2022-10-19T11:29:30.429Z,101391.59
2022-10-19T11:31:59.018Z,101381.78
2022-10-19T11:34:47.275Z,101372.75
2022-10-19T11:37:27.042Z,101379.47
2022-10-19T11:40:06.224Z,101370.38
2022-10-19T11:45:33.183Z,101357.69
2022-10-19T11:48:21.426Z,101350.81
2022-10-19T11:50:58.951Z,101351.47
2022-10-19T11:53:49.044Z,101348.91
2022-10-19T11:56:39.226Z,101349.66
2022-10-19T11:59:22.465Z,101347.97
2022-10-19T12:01:59.431Z,101333.75
2022-10-19T12:04:51.658Z,101325.81
2022-10-19T12:07:37.815Z,101329.22
2022-10-19T12:10:17.281Z,101329.41
2022-10-19T12:12:49.638Z,101322.38
2022-10-19T12:15:30.807Z,101328.50
2022-10-19T12:18:03.618Z,101325.78
2022-10-19T12:20:35.820Z,101328.88
2022-10-19T12:23:22.565Z,101313.19
2022-10-19T12:25:51.843Z,101314.59
2022-10-19T12:28:23.783Z,101302.03
2022-10-19T12:30:54.204Z,101286.53
2022-10-19T12:33:26.583Z,101279.81
2022-10-19T12:36:06.151Z,101277.28
2022-10-19T12:38:46.077Z,101301.81
2022-10-19T12:41:27.256Z,101287.53
2022-10-19T12:44:07.618Z,101280.25
2022-10-19T12:46:42.742Z,101278.59
2022-10-19T12:49:48.782Z,101286.13
2022-10-19T12:52:35.597Z,101286.38
2022-10-19T12:55:13.609Z,101280.75
2022-10-19T12:57:47.969Z,101278.50
2022-10-19T13:00:24.968Z,101274.56
2022-10-19T13:03:03.010Z,101254.97
2022-10-19T13:05:32.465Z,101269.22
2022-10-19T13:08:03.212Z,101241.22
2022-10-19T13:10:33.114Z,101266.47
2022-10-19T13:13:03.031Z,101253.19
2022-10-19T13:15:58.931Z,101226.38
2022-10-19T13:19:09.301Z,101268.25
2022-10-19T13:22:03.806Z,101258.88
2022-10-19T13:24:35.728Z,101213.34
2022-10-19T13:27:26.805Z,101244.97
2022-10-19T13:29:55.005Z,101222.69
2022-10-19T13:32:44.303Z,101206.09
2022-10-19T13:35:25.019Z,101233.16
2022-10-19T13:38:26.419Z,101224.22
2022-10-19T13:41:02.298Z,101208.47
2022-10-19T13:43:33.987Z,101221.31
2022-10-19T13:46:10.160Z,101199.50
2022-10-19T13:49:17.016Z,101212.38
2022-10-19T13:51:57.034Z,101207.63
2022-10-19T13:54:43.139Z,101202.03
2022-10-19T13:57:22.903Z,101200.09
2022-10-19T14:00:15.143Z,101209.06
2022-10-19T14:03:22.465Z,101200.09
2022-10-19T14:06:16.248Z,101206.56
2022-10-19T14:09:16.712Z,101203.13
2022-10-19T14:11:51.248Z,101181.03
2022-10-19T14:14:21.817Z,101183.78
2022-10-19T14:16:54.458Z,101197.13
2022-10-19T14:19:27.842Z,101209.19
2022-10-19T14:21:57.673Z,101202.50
2022-10-19T14:24:32.366Z,101199.41
2022-10-19T14:27:04.397Z,101194.19
2022-10-19T14:29:36.642Z,101196.22
2022-10-19T14:32:05.127Z,101159.19
2022-10-19T14:34:32.943Z,101189.63
2022-10-19T14:37:00.804Z,101180.56
2022-10-19T14:39:35.493Z,101184.88
2022-10-19T14:42:11.469Z,101177.47
2022-10-19T14:44:41.437Z,101192.38
2022-10-19T14:47:20.294Z,101194.31
2022-10-19T14:50:05.229Z,101161.63
2022-10-19T14:52:40.213Z,101190.47
2022-10-19T14:55:15.429Z,101160.69
2022-10-19T14:57:49.579Z,101170.72
2022-10-19T15:00:20.977Z,101184.53
2022-10-19T15:02:57.427Z,101170.13
2022-10-19T15:05:28.038Z,101187.81
2022-10-19T15:07:56.730Z,101164.59
2022-10-19T15:10:30.310Z,101198.66
2022-10-19T15:13:06.015Z,101193.88
2022-10-19T15:15:36.229Z,101198.97
2022-10-19T15:18:06.322Z,101195.03
2022-10-19T15:20:44.281Z,101190.69
2022-10-19T15:23:34.912Z,101176.69
2022-10-19T15:26:09.570Z,101186.91
2022-10-19T15:28:42.355Z,101192.03
2022-10-19T15:31:16.925Z,101161.19
2022-10-19T15:33:48.748Z,101143.25
2022-10-19T15:36:19.467Z,101145.16
2022-10-19T15:38:48.868Z,101172.34
2022-10-19T15:41:20.630Z,101175.59
2022-10-19T15:43:51.618Z,101168.44
2022-10-19T15:46:32.514Z,101172.19
2022-10-19T15:49:04.510Z,101165.59
2022-10-19T15:51:47.464Z,101160.03
2022-10-19T15:54:17.619Z,101139.81
2022-10-19T15:56:48.209Z,101156.22
2022-10-19T15:59:20.120Z,101149.03
2022-10-19T16:01:53.766Z,101163.38
2022-10-19T16:04:24.351Z,101136.44
2022-10-19T16:06:52.613Z,101132.78
2022-10-19T16:09:23.016Z,101150.81
2022-10-19T16:11:56.784Z,101148.78
2022-10-19T16:14:28.456Z,101113.13
2022-10-19T16:17:00.759Z,101133.84
2022-10-19T16:19:31.028Z,101072.41
2022-10-19T16:21:59.334Z,101118.22
2022-10-19T16:24:29.145Z,101114.28
2022-10-19T16:27:00.207Z,101113.03
2022-10-19T16:29:30.439Z,101137.25
2022-10-19T16:31:58.939Z,101057.59
2022-10-19T16:34:27.961Z,101101.06
2022-10-19T16:36:56.145Z,101140.19
2022-10-19T16:39:25.761Z,101110.75
2022-10-19T16:41:54.824Z,101141.00
2022-10-19T16:44:23.264Z,101100.50
2022-10-19T16:46:52.735Z,101122.44
2022-10-19T16:49:21.069Z,101138.16
2022-10-19T16:51:51.949Z,101114.31
2022-10-19T16:54:23.064Z,101118.94
2022-10-19T16:56:51.695Z,101113.31
2022-10-19T16:59:20.778Z,101129.22
2022-10-19T17:01:50.232Z,101128.81
2022-10-19T17:04:20.176Z,101118.16
2022-10-19T17:06:48.625Z,101126.75
2022-10-19T17:09:40.807Z,101110.44
2022-10-19T17:12:10.499Z,101119.19
2022-10-19T17:14:48.378Z,101081.53
2022-10-19T17:17:25.507Z,101077.53
2022-10-19T17:20:07.505Z,101098.47
2022-10-19T17:22:38.122Z,101125.66
2022-10-19T17:25:09.535Z,101089.41
2022-10-19T17:27:47.117Z,101095.09
2022-10-19T17:30:18.989Z,101106.22
2022-10-19T17:32:55.272Z,101093.22
2022-10-19T17:35:25.291Z,101094.88
2022-10-19T17:37:53.876Z,101137.56
2022-10-19T17:40:21.902Z,101110.91
2022-10-19T17:48:52.991Z,101142.06
2022-10-19T17:51:55.281Z,101105.31
2022-10-19T17:54:29.661Z,101107.00
2022-10-19T17:56:59.578Z,101098.19
2022-10-19T17:59:40.637Z,101104.47
2022-10-19T18:09:02.921Z,101133.09
2022-10-19T18:11:36.369Z,101139.44
2022-10-19T18:14:06.089Z,101138.00
2022-10-19T18:16:39.987Z,101101.97
2022-10-19T18:19:09.919Z,101119.56
2022-10-19T18:21:42.613Z,101113.09
2022-10-19T18:24:16.929Z,101088.72
2022-10-19T18:26:45.496Z,101134.63
2022-10-19T18:29:20.494Z,101113.91
2022-10-19T18:31:52.477Z,101128.59
2022-10-19T18:34:25.239Z,101090.44
2022-10-19T18:36:54.129Z,101119.13
2022-10-19T18:39:24.165Z,101121.22
2022-10-19T18:41:55.188Z,101066.91
2022-10-19T18:44:27.255Z,101039.50
2022-10-19T18:46:57.294Z,101054.78
2022-10-19T18:49:26.473Z,101108.03
2022-10-19T18:51:55.851Z,101083.75
2022-10-19T18:54:28.027Z,101055.44
2022-10-19T18:56:56.454Z,101021.03
2022-10-19T18:59:25.223Z,101048.03
2022-10-19T19:01:53.540Z,101091.09
2022-10-19T19:04:46.332Z,101080.63
2022-10-19T19:07:14.565Z,101078.13
2022-10-19T19:13:55.507Z,101063.53
2022-10-19T19:16:25.062Z,101078.34
2022-10-19T19:18:56.968Z,101072.28
2022-10-19T19:21:27.250Z,101047.47
2022-10-19T19:23:59.180Z,101048.97
2022-10-19T19:26:29.890Z,101069.34
2022-10-19T19:28:59.914Z,101022.09
2022-10-19T19:32:08.670Z,101065.94
2022-10-19T19:34:36.970Z,101062.31
2022-10-19T19:48:29.316Z,101065.22
2022-10-19T19:50:58.093Z,101021.94
2022-10-19T19:53:37.076Z,101047.28
2022-10-19T19:59:13.210Z,101000.28
2022-10-19T20:01:41.330Z,101061.88
2022-10-19T20:04:11.697Z,101076.53
2022-10-19T20:06:40.896Z,101075.81
2022-10-19T20:09:11.040Z,101012.78
2022-10-19T20:14:42.123Z,101030.47
2022-10-19T20:17:10.233Z,101042.84
2022-10-19T20:19:39.842Z,101037.22
2022-10-19T20:22:08.039Z,101055.59
2022-10-19T20:28:20.552Z,101049.56
2022-10-19T20:31:11.970Z,101083.69
2022-10-19T20:33:41.685Z,101078.19
2022-10-19T20:36:14.065Z,101054.97
2022-10-19T20:38:47.354Z,101027.69
2022-10-19T20:41:15.704Z,101025.56
2022-10-19T20:43:43.706Z,101026.38
2022-10-19T20:46:13.657Z,101031.94
2022-10-19T20:48:41.950Z,101061.25
2022-10-19T20:51:16.374Z,101061.44
2022-10-19T20:53:46.398Z,101031.88
2022-10-19T20:56:16.932Z,101053.44
2022-10-19T20:58:45.575Z,101057.22
2022-10-19T21:01:15.356Z,101058.38
2022-10-19T21:03:47.674Z,101042.25
2022-10-19T21:06:16.886Z,101056.91
2022-10-19T21:08:44.793Z,101047.69
2022-10-19T21:11:14.260Z,101032.13
2022-10-19T21:13:42.462Z,101047.75
2022-10-19T21:16:11.653Z,101044.78
2022-10-19T21:18:40.112Z,101025.56
2022-10-19T21:21:13.105Z,101022.09
2022-10-19T21:23:42.780Z,101054.00
2022-10-19T21:26:10.716Z,100999.75
2022-10-19T21:28:39.886Z,101027.50
2022-10-19T21:31:10.686Z,101035.88
2022-10-19T21:33:38.570Z,101006.84
2022-10-19T21:36:08.459Z,100997.78
2022-10-19T21:38:36.733Z,101033.03
2022-10-19T21:41:07.838Z,101040.13
2022-10-19T21:43:36.253Z,101012.41
2022-10-19T21:46:05.278Z,101035.69
2022-10-19T21:48:33.900Z,101039.03
2022-10-19T21:51:11.024Z,101028.81
2022-10-19T21:53:38.833Z,101034.22
2022-10-19T21:56:08.331Z,101003.69
2022-10-19T21:58:36.318Z,101030.59
2022-10-19T22:01:08.583Z,101026.97
2022-10-19T22:03:36.590Z,101018.31
2022-10-19T22:06:04.630Z,101024.69
2022-10-19T22:09:00.150Z,100985.34
2022-10-19T22:11:32.420Z,100996.84
2022-10-19T22:14:02.246Z,101016.50
2022-10-19T22:16:31.441Z,100966.59
2022-10-19T22:18:59.353Z,101018.44
2022-10-19T22:21:29.862Z,101010.38
2022-10-19T22:23:59.134Z,101002.59
2022-10-19T22:26:28.520Z,101006.59
2022-10-19T22:28:58.747Z,100962.84
2022-10-19T22:31:27.483Z,101014.06
2022-10-19T22:33:55.660Z,101002.34
2022-10-19T22:36:23.427Z,101010.72
2022-10-19T22:38:51.165Z,100952.31
2022-10-19T22:41:18.984Z,100966.75
2022-10-19T22:43:46.881Z,100994.63
2022-10-19T22:46:16.041Z,100994.69
2022-10-19T22:48:43.829Z,100997.13
2022-10-19T22:51:11.709Z,100989.09
2022-10-19T22:53:39.539Z,101003.66
2022-10-19T22:56:08.399Z,100981.66
2022-10-19T22:58:36.194Z,100997.28
2022-10-19T23:01:06.095Z,100992.25
2022-10-19T23:03:35.685Z,100981.25
2022-10-19T23:06:04.101Z,100960.94
2022-10-19T23:08:32.177Z,100966.16
2022-10-19T23:11:00.042Z,100969.28
2022-10-19T23:13:28.246Z,101000.44
2022-10-19T23:15:56.051Z,100983.50
2022-10-19T23:18:23.921Z,100993.28
2022-10-19T23:20:57.175Z,100961.59
2022-10-19T23:23:25.602Z,100965.97
2022-10-19T23:26:04.923Z,100959.75
2022-10-19T23:28:34.346Z,100944.56
2022-10-19T23:31:06.035Z,100960.66
2022-10-19T23:33:34.329Z,100954.38
2022-10-19T23:36:09.245Z,100961.31
2022-10-19T23:38:37.402Z,100922.94
2022-10-19T23:41:05.534Z,100936.47
2022-10-19T23:43:33.985Z,100947.94
2022-10-19T23:46:01.958Z,100914.69
2022-10-19T23:48:30.176Z,100916.94
2022-10-19T23:50:59.982Z,100942.75
2022-10-19T23:53:30.123Z,100912.84
2022-10-19T23:56:01.496Z,100913.28
2022-10-19T23:58:30.412Z,100918.97
